Terminal Aerodrome Forecast
Issued by NWS

Home | Current Version | Previous Version | Graphics & Text | Print | Product List | Glossary On
Versions: 1 2 3 4 5 6 7 8 9 10 11 12 13 14 15 16 17 18 19
000
FTUS43 KICT 300949 AAA
TAFCNU
TAF AMD
KCNU 300949Z 3010/3106 36004KT 4SM BR SCT001
      TEMPO 3010/3014 1SM BR OVC001
     FM301400 10005KT 3SM BR OVC003
     FM301800 13005KT P6SM BKN015=

USA.gov is the U.S. government's official web portal to all federal, state and local government web resources and services.